Bitflower — SBJE — position and weather

sailwx.info

Track history (hours):
 
Tides and Currents Weather Stations Pressure Air Temp Water Temp Dewpoint Dewpoint Depression Visibility Wind Speed Wind Dir Waves Ship Positions

Bitflower

Last reported at 2015-Jan-26 17:32 UTC. Time now 2015-Jan-26 18:35 UTC.
Position N 53°31' E 009°57'.

Length 116 m; draft 5 m.

Type: Tanker. MMSI: 266009000.

Date/timePositionNaut miles runAvg speedWind from/ knotsBaromVisibWave heightAir tempDewpointWater temp
2015-Jan-26 17:32N 53°31' E 009°57'0 0.0
2015-Jan-26 16:32N 53°31' E 009°57'0 0.0
2015-Jan-26 15:32N 53°31' E 009°57'0 0.0
2015-Jan-26 14:32N 53°31' E 009°57'0 0.0
2015-Jan-26 13:32N 53°31' E 009°57'0 0.0
2015-Jan-26 12:32N 53°31' E 009°57'0 0.0
2015-Jan-26 11:32N 53°31' E 009°57'0 0.0
2015-Jan-26 10:32N 53°31' E 009°57'0 0.0
2015-Jan-26 08:29N 53°31' E 009°57'0 0.0
2015-Jan-26 07:29N 53°31' E 009°57'2 2.1
2015-Jan-26 06:33N 53°32' E 009°56'1 1.0
2015-Jan-26 05:31N 53°32' E 009°58'0 0.0
2015-Jan-26 04:31N 53°32' E 009°58'0 0.0
2015-Jan-26 03:31N 53°32' E 009°58'0 0.0
2015-Jan-26 02:31N 53°32' E 009°58'0 0.0
2015-Jan-26 01:19N 53°32' E 009°58'0 0.0
2015-Jan-26 00:31N 53°32' E 009°58'1 1.1
2015-Jan-25 23:33N 53°32' E 009°56'7 7.1
2015-Jan-25 22:34N 53°34' E 009°44'1010.2
2015-Jan-25 21:33N 53°40' E 009°31'1110.7
2015-Jan-25 20:34N 53°49' E 009°22'9 9.3
2015-Jan-25 19:34N 53°53' E 009°07'10 9.8
2015-Jan-25 18:34N 53°50' E 008°51'1010.4
2015-Jan-25 17:33N 53°57' E 008°38'1110.9
2015-Jan-25 16:33N 53°59' E 008°19'9 9.2
2015-Jan-25 15:33N 54°01' E 008°04'3 2.6
2015-Jan-25 14:26N 54°02' E 008°09'0 0.0
2015-Jan-25 13:32N 54°02' E 008°09'0 0.0
2015-Jan-25 12:32N 54°02' E 008°09'0 0.0
2015-Jan-25 11:32N 54°02' E 008°09'0 0.0
2015-Jan-25 10:26N 54°02' E 008°09'0 0.1
2015-Jan-25 09:08N 54°02' E 008°09'0 0.0
2015-Jan-25 08:32N 54°02' E 008°09'4 3.7
2015-Jan-25 07:33N 54°00' E 008°03'9 8.4
2015-Jan-25 06:30N 53°57' E 007°49'9 9.0
2015-Jan-25 05:31N 53°55' E 007°35'17 8.4
2015-Jan-25 03:33N 53°51' E 007°08'30 9.2
2015-Jan-25 00:17N 53°44' E 006°18'710.1
2015-Jan-24 23:33N 53°42' E 006°06'1110.7
2015-Jan-24 22:33N 53°38' E 005°49'1211.6
2015-Jan-24 21:33N 53°35' E 005°30'1211.7
2015-Jan-24 20:33N 53°31' E 005°12'1212.2
2015-Jan-24 19:33N 53°27' E 004°53'1110.8
2015-Jan-24 18:31N 53°19' E 004°39'2110.5
2015-Jan-24 16:33N 53°01' E 004°22'10 9.6
2015-Jan-24 15:33N 52°52' E 004°14'9 9.0
2015-Jan-24 14:33N 52°45' E 004°07'9 9.2
2015-Jan-24 13:33N 52°38' E 003°56'81 9.6
2015-Jan-24 05:11N 51°39' E 002°27'812.8
2015-Jan-24 04:33N 51°32' E 002°19'1313.4
2015-Jan-24 03:33N 51°21' E 002°09'1414.4
2015-Jan-24 02:33N 51°10' E 001°54'1816.6
2015-Jan-24 01:29N 50°58' E 001°33'10211.3
2015-Jan-23 16:30N 49°40' W 000°09'1010.7
2015-Jan-23 15:33N 49°30' W 000°07'1413.7
2015-Jan-23 14:33N 49°26' E 000°13'1312.8
2015-Jan-23 13:32N 49°28' E 000°32'5 0.2
2015-Jan-22 11:26N 49°29' E 000°40'910.2
2015-Jan-22 10:33N 49°28' E 000°26'1413.9
2015-Jan-22 09:33N 49°26' E 000°05'1212.1
2015-Jan-22 08:33N 49°32' W 000°11'6512.4
2015-Jan-22 03:20N 50°33' E 000°22'1114.2
2015-Jan-22 02:33N 50°38' E 000°38'1313.2
2015-Jan-22 01:33N 50°45' E 000°55'2311.5
2015-Jan-21 23:33N 50°59' E 001°24'912.8
2015-Jan-21 22:50N 51°06' E 001°34'113.5
2015-Jan-21 22:46N 51°07' E 001°35'313.8
2015-Jan-21 22:33N 51°09' E 001°39'1515.1
2015-Jan-21 21:33N 51°21' E 001°53'1211.7
2015-Jan-21 20:33N 51°21' E 002°12'1712.6
2015-Jan-21 19:14N 51°23' E 002°38'912.4
2015-Jan-21 18:32N 51°25' E 002°52'1514.9
2015-Jan-21 17:32N 51°25' E 003°16'1414.4
2015-Jan-21 16:34N 51°25' E 003°38'1211.9
2015-Jan-21 15:33N 51°24' E 003°57'8 8.4
2015-Jan-21 14:33N 51°24' E 004°11'9 8.7
2015-Jan-21 13:33N 51°17' E 004°20'1 1.3
2015-Jan-21 12:33N 51°16' E 004°21'0 0.1
2015-Jan-21 11:28N 51°16' E 004°21'0 0.0
2015-Jan-21 10:32N 51°16' E 004°21'0 0.0
2015-Jan-21 09:29N 51°16' E 004°21'0 0.0
2015-Jan-21 08:29N 51°16' E 004°21'0 0.0
2015-Jan-21 07:28N 51°16' E 004°21'0 0.0
2015-Jan-21 06:32N 51°16' E 004°21'0 0.0
2015-Jan-21 05:29N 51°16' E 004°21'0 0.0
2015-Jan-21 04:29N 51°16' E 004°21'0 0.0
2015-Jan-21 03:32N 51°16' E 004°21'0 0.0
2015-Jan-21 02:31N 51°16' E 004°21'0 0.0
2015-Jan-21 01:25N 51°16' E 004°21'0 0.0
2015-Jan-21 00:32N 51°16' E 004°21'0 0.0
2015-Jan-20 23:31N 51°16' E 004°21'0 0.0
2015-Jan-20 22:31N 51°16' E 004°21'0 0.0
2015-Jan-20 21:31N 51°16' E 004°21'0 0.0
2015-Jan-20 20:32N 51°16' E 004°21'0 0.0
2015-Jan-20 19:33N 51°16' E 004°21'1 0.9
2015-Jan-20 18:33N 51°17' E 004°20'1 1.1
2015-Jan-20 17:34N 51°18' E 004°19'8 7.7
2015-Jan-20 16:32N 51°23' E 004°10'8 7.7
2015-Jan-20 15:33N 51°25' E 003°58'9 9.5
2015-Jan-20 14:33N 51°23' E 003°43'1010.3
2015-Jan-20 13:33N 51°29' E 003°29'8 7.6
2015-Jan-20 12:33N 51°36' E 003°23'10 9.7
2015-Jan-20 11:33N 51°44' E 003°14'6 5.5
2015-Jan-20 10:30N 51°47' E 003°21'9 0.3
2015-Jan-19 01:29N 51°54' E 003°31'0 0.0
2015-Jan-19 00:15N 51°54' E 003°31'0 0.0
2015-Jan-18 14:27N 51°54' E 003°31'0 0.0
2015-Jan-18 13:33N 51°54' E 003°31'0 0.0
2015-Jan-18 12:33N 51°54' E 003°31'0 0.0
2015-Jan-18 01:29N 51°54' E 003°31'0 0.0
2015-Jan-18 00:32N 51°54' E 003°31'0 0.0
2015-Jan-17 23:32N 51°54' E 003°31'0 0.0
2015-Jan-17 22:32N 51°54' E 003°31'14 1.5
2015-Jan-17 13:23N 52°02' E 003°49'8 9.3
2015-Jan-17 12:34N 52°00' E 004°01'8 8.2
2015-Jan-17 11:33N 51°56' E 004°12'0 0.0
2015-Jan-17 10:28N 51°56' E 004°12'0 0.0
2015-Jan-17 09:31N 51°56' E 004°12'0 0.0
2015-Jan-17 08:31N 51°56' E 004°12'0 0.0
2015-Jan-17 07:31N 51°56' E 004°12'0 0.0
2015-Jan-17 06:31N 51°56' E 004°12'0 0.0
2015-Jan-17 05:31N 51°56' E 004°12'0 0.0
2015-Jan-17 04:31N 51°56' E 004°12'0 0.0
2015-Jan-17 03:31N 51°56' E 004°12'0 0.0
2015-Jan-17 02:31N 51°56' E 004°12'0 0.0
2015-Jan-17 01:31N 51°56' E 004°12'0 0.0
2015-Jan-17 00:25N 51°56' E 004°12'0 0.0
2015-Jan-16 23:31N 51°56' E 004°12'0 0.0
2015-Jan-16 22:31N 51°56' E 004°12'0 0.0
2015-Jan-16 21:31N 51°56' E 004°12'0 0.0
2015-Jan-16 20:31N 51°56' E 004°12'0 0.0
2015-Jan-16 19:31N 51°56' E 004°12'0 0.0
2015-Jan-16 18:28N 51°56' E 004°12'  
Track history (hours):
 
Tides and Currents Weather Stations Pressure Air Temp Water Temp Dewpoint Dewpoint Depression Visibility Wind Speed Wind Dir Waves Ship Positions

Bitflower

Last reported at 2015-Jan-26 17:32 UTC. Time now 2015-Jan-26 18:35 UTC.
Position N 53°31' E 009°57'.

Length 116 m; draft 5 m.

Type: Tanker. MMSI: 266009000.

Date/timePositionNaut miles runAvg speedWind from/ knotsBaromVisibWave heightAir tempDewpointWater temp
2015-Jan-26 17:32N 53°31' E 009°57'0 0.0
2015-Jan-26 16:32N 53°31' E 009°57'0 0.0
2015-Jan-26 15:32N 53°31' E 009°57'0 0.0
2015-Jan-26 14:32N 53°31' E 009°57'0 0.0
2015-Jan-26 13:32N 53°31' E 009°57'0 0.0
2015-Jan-26 12:32N 53°31' E 009°57'0 0.0
2015-Jan-26 11:32N 53°31' E 009°57'0 0.0
2015-Jan-26 10:32N 53°31' E 009°57'0 0.0
2015-Jan-26 08:29N 53°31' E 009°57'0 0.0
2015-Jan-26 07:29N 53°31' E 009°57'2 2.1
2015-Jan-26 06:33N 53°32' E 009°56'1 1.0
2015-Jan-26 05:31N 53°32' E 009°58'0 0.0
2015-Jan-26 04:31N 53°32' E 009°58'0 0.0
2015-Jan-26 03:31N 53°32' E 009°58'0 0.0
2015-Jan-26 02:31N 53°32' E 009°58'0 0.0
2015-Jan-26 01:19N 53°32' E 009°58'0 0.0
2015-Jan-26 00:31N 53°32' E 009°58'1 1.1
2015-Jan-25 23:33N 53°32' E 009°56'7 7.1
2015-Jan-25 22:34N 53°34' E 009°44'1010.2
2015-Jan-25 21:33N 53°40' E 009°31'1110.7
2015-Jan-25 20:34N 53°49' E 009°22'9 9.3
2015-Jan-25 19:34N 53°53' E 009°07'10 9.8
2015-Jan-25 18:34N 53°50' E 008°51'1010.4
2015-Jan-25 17:33N 53°57' E 008°38'1110.9
2015-Jan-25 16:33N 53°59' E 008°19'9 9.2
2015-Jan-25 15:33N 54°01' E 008°04'3 2.6
2015-Jan-25 14:26N 54°02' E 008°09'0 0.0
2015-Jan-25 13:32N 54°02' E 008°09'0 0.0
2015-Jan-25 12:32N 54°02' E 008°09'0 0.0
2015-Jan-25 11:32N 54°02' E 008°09'0 0.0
2015-Jan-25 10:26N 54°02' E 008°09'0 0.1
2015-Jan-25 09:08N 54°02' E 008°09'0 0.0
2015-Jan-25 08:32N 54°02' E 008°09'4 3.7
2015-Jan-25 07:33N 54°00' E 008°03'9 8.4
2015-Jan-25 06:30N 53°57' E 007°49'9 9.0
2015-Jan-25 05:31N 53°55' E 007°35'17 8.4
2015-Jan-25 03:33N 53°51' E 007°08'30 9.2
2015-Jan-25 00:17N 53°44' E 006°18'710.1
2015-Jan-24 23:33N 53°42' E 006°06'1110.7
2015-Jan-24 22:33N 53°38' E 005°49'1211.6
2015-Jan-24 21:33N 53°35' E 005°30'1211.7
2015-Jan-24 20:33N 53°31' E 005°12'1212.2
2015-Jan-24 19:33N 53°27' E 004°53'1110.8
2015-Jan-24 18:31N 53°19' E 004°39'2110.5
2015-Jan-24 16:33N 53°01' E 004°22'10 9.6
2015-Jan-24 15:33N 52°52' E 004°14'9 9.0
2015-Jan-24 14:33N 52°45' E 004°07'9 9.2
2015-Jan-24 13:33N 52°38' E 003°56'81 9.6
2015-Jan-24 05:11N 51°39' E 002°27'812.8
2015-Jan-24 04:33N 51°32' E 002°19'1313.4
2015-Jan-24 03:33N 51°21' E 002°09'1414.4
2015-Jan-24 02:33N 51°10' E 001°54'1816.6
2015-Jan-24 01:29N 50°58' E 001°33'10211.3
2015-Jan-23 16:30N 49°40' W 000°09'1010.7
2015-Jan-23 15:33N 49°30' W 000°07'1413.7
2015-Jan-23 14:33N 49°26' E 000°13'1312.8
2015-Jan-23 13:32N 49°28' E 000°32'5 0.2
2015-Jan-22 11:26N 49°29' E 000°40'910.2
2015-Jan-22 10:33N 49°28' E 000°26'1413.9
2015-Jan-22 09:33N 49°26' E 000°05'1212.1
2015-Jan-22 08:33N 49°32' W 000°11'6512.4
2015-Jan-22 03:20N 50°33' E 000°22'1114.2
2015-Jan-22 02:33N 50°38' E 000°38'1313.2
2015-Jan-22 01:33N 50°45' E 000°55'2311.5
2015-Jan-21 23:33N 50°59' E 001°24'912.8
2015-Jan-21 22:50N 51°06' E 001°34'113.5
2015-Jan-21 22:46N 51°07' E 001°35'313.8
2015-Jan-21 22:33N 51°09' E 001°39'1515.1
2015-Jan-21 21:33N 51°21' E 001°53'1211.7
2015-Jan-21 20:33N 51°21' E 002°12'1712.6
2015-Jan-21 19:14N 51°23' E 002°38'912.4
2015-Jan-21 18:32N 51°25' E 002°52'1514.9
2015-Jan-21 17:32N 51°25' E 003°16'1414.4
2015-Jan-21 16:34N 51°25' E 003°38'1211.9
2015-Jan-21 15:33N 51°24' E 003°57'8 8.4
2015-Jan-21 14:33N 51°24' E 004°11'9 8.7
2015-Jan-21 13:33N 51°17' E 004°20'1 1.3
2015-Jan-21 12:33N 51°16' E 004°21'0 0.1
2015-Jan-21 11:28N 51°16' E 004°21'0 0.0
2015-Jan-21 10:32N 51°16' E 004°21'0 0.0
2015-Jan-21 09:29N 51°16' E 004°21'0 0.0
2015-Jan-21 08:29N 51°16' E 004°21'0 0.0
2015-Jan-21 07:28N 51°16' E 004°21'0 0.0
2015-Jan-21 06:32N 51°16' E 004°21'0 0.0
2015-Jan-21 05:29N 51°16' E 004°21'0 0.0
2015-Jan-21 04:29N 51°16' E 004°21'0 0.0
2015-Jan-21 03:32N 51°16' E 004°21'0 0.0
2015-Jan-21 02:31N 51°16' E 004°21'0 0.0
2015-Jan-21 01:25N 51°16' E 004°21'0 0.0
2015-Jan-21 00:32N 51°16' E 004°21'0 0.0
2015-Jan-20 23:31N 51°16' E 004°21'0 0.0
2015-Jan-20 22:31N 51°16' E 004°21'0 0.0
2015-Jan-20 21:31N 51°16' E 004°21'0 0.0
2015-Jan-20 20:32N 51°16' E 004°21'0 0.0
2015-Jan-20 19:33N 51°16' E 004°21'1 0.9
2015-Jan-20 18:33N 51°17' E 004°20'1 1.1
2015-Jan-20 17:34N 51°18' E 004°19'8 7.7
2015-Jan-20 16:32N 51°23' E 004°10'8 7.7
2015-Jan-20 15:33N 51°25' E 003°58'9 9.5
2015-Jan-20 14:33N 51°23' E 003°43'1010.3
2015-Jan-20 13:33N 51°29' E 003°29'8 7.6
2015-Jan-20 12:33N 51°36' E 003°23'10 9.7
2015-Jan-20 11:33N 51°44' E 003°14'6 5.5
2015-Jan-20 10:30N 51°47' E 003°21'9 0.3
2015-Jan-19 01:29N 51°54' E 003°31'0 0.0
2015-Jan-19 00:15N 51°54' E 003°31'0 0.0
2015-Jan-18 14:27N 51°54' E 003°31'0 0.0
2015-Jan-18 13:33N 51°54' E 003°31'0 0.0
2015-Jan-18 12:33N 51°54' E 003°31'0 0.0
2015-Jan-18 01:29N 51°54' E 003°31'0 0.0
2015-Jan-18 00:32N 51°54' E 003°31'0 0.0
2015-Jan-17 23:32N 51°54' E 003°31'0 0.0
2015-Jan-17 22:32N 51°54' E 003°31'14 1.5
2015-Jan-17 13:23N 52°02' E 003°49'8 9.3
2015-Jan-17 12:34N 52°00' E 004°01'8 8.2
2015-Jan-17 11:33N 51°56' E 004°12'0 0.0
2015-Jan-17 10:28N 51°56' E 004°12'0 0.0
2015-Jan-17 09:31N 51°56' E 004°12'0 0.0
2015-Jan-17 08:31N 51°56' E 004°12'0 0.0
2015-Jan-17 07:31N 51°56' E 004°12'0 0.0
2015-Jan-17 06:31N 51°56' E 004°12'0 0.0
2015-Jan-17 05:31N 51°56' E 004°12'0 0.0
2015-Jan-17 04:31N 51°56' E 004°12'0 0.0
2015-Jan-17 03:31N 51°56' E 004°12'0 0.0
2015-Jan-17 02:31N 51°56' E 004°12'0 0.0
2015-Jan-17 01:31N 51°56' E 004°12'0 0.0
2015-Jan-17 00:25N 51°56' E 004°12'0 0.0
2015-Jan-16 23:31N 51°56' E 004°12'0 0.0
2015-Jan-16 22:31N 51°56' E 004°12'0 0.0
2015-Jan-16 21:31N 51°56' E 004°12'0 0.0
2015-Jan-16 20:31N 51°56' E 004°12'0 0.0
2015-Jan-16 19:31N 51°56' E 004°12'0 0.0
2015-Jan-16 18:28N 51°56' E 004°12'  

Dump ship's entire track history